Latest Coastal Weather Observations for Sydney Airport

IDN60701

Issued at 3:15 am EST Wednesday 3 September 2014 (issued every 10 minutes, with the page automatically refreshed every 10 minutes)

About coastal observations | Map of coastal stations | Coastal observations for NSW | Marine services | Other Formats
Station Details ID: 066037 Name: SYDNEY AIRPORT AMO Lat: -33.95 Lon: 151.17 Height: 6.0 m
Data from the previous 72 hours. | See also: Recent months at Sydney Airport
Date/Time
EST
Temp

°C
Wind Pressure Rain
since 9am
mm
Weather Cloud Vis
km
Sea
Height
m
Swell
Dir
 
Speed
knots
Gust
knots
hPa Trend Height
m
Period
s
Dir
03/03:00am 10.7 SSW 25 35 1010.6 R 5.2 Showers Mostly clear 10 - - - -
03/02:46am 9.8 WSW 17 27 1010.5 - 5.2 Rain Mostly clear 10 - - - -
03/02:30am 10.5 SW 21 29 1010.6 - 5.0 Rain Mostly clear 10 - - - -
03/02:00am 11.0 SW 23 28 1010.4 - 5.0 - Mostly clear 10 - - - -
03/01:30am 10.0 SW 21 29 1010.9 - 5.0 Rain Mostly clear 10 - - - -
03/01:00am 9.0 WSW 17 24 1011.0 - 4.0 - Mostly clear 10 - - - -
03/12:30am 8.9 WSW 19 24 1011.0 - 3.2 Showers Mostly clear 10 - - - -
03/12:00am 8.8 WSW 19 23 1011.1 F 2.2 Showers Mostly clear 10 - - - -
 
Date/Time
EST
Temp

°C
Wind Pressure Rain
since 9am
mm
Weather Cloud Vis
km
Sea
Height
m
Swell
Dir
 
Speed
knots
Gust
knots
hPa Trend Height
m
Period
s
Dir
02/11:30pm 8.9 WSW 19 24 1011.0 - 1.6 Showers Mostly clear 10 - - - -
02/11:00pm 8.9 WSW 22 28 1011.2 - 1.2 - Partly cloudy 10 - - - -
02/10:30pm 9.0 WSW 20 30 1011.6 - 1.2 Showers Partly cloudy 10 - - - -
02/10:00pm 9.5 WSW 22 32 1011.7 - 1.2 - Partly cloudy 10 - - - -
02/09:54pm 9.9 WSW 22 32 1011.8 - 1.2 Showers Mostly clear 10 - - - -
02/09:30pm 10.4 WSW 21 27 1011.6 - 1.2 Showers Mostly clear 10 - - - -
02/09:00pm 10.8 WSW 19 26 1011.7 R 1.0 Showers Mostly cloudy 30 - - - -
02/08:30pm 11.3 WSW 19 24 1011.5 - 1.0 Showers Mostly clear 10 - - - -
02/08:00pm 12.0 SW 18 22 1011.1 - 1.0 - Mostly clear 10 - - - -
02/07:30pm 12.3 SSW 19 23 1010.9 - 1.0 Showers Mostly clear 10 - - - -
02/07:19pm 12.3 SSW 17 27 1011.0 - 1.0 Showers Mostly clear 10 - - - -
02/07:00pm 12.2 SSW 13 15 1010.6 - 1.0 - Partly cloudy 10 - - - -
02/06:30pm 12.1 SW 16 19 1010.4 - 1.0 Showers Mostly clear 10 - - - -
02/06:00pm 13.0 SW 19 25 1009.9 R 1.0 Showers Cloudy 30 - - - -
02/05:51pm 12.9 WSW 15 25 1009.8 - 1.0 Showers Mostly clear 10 - - - -
02/05:30pm 12.7 WSW 16 20 1009.5 - 1.0 Rain Mostly clear 10 - - - -
02/05:00pm 13.1 W 17 22 1009.3 - 1.0 - Mostly clear 10 - - - -
02/04:30pm 13.9 W 13 19 1008.8 - 1.0 Rain Mostly clear 10 - - - -
02/04:00pm 13.4 SW 11 16 1008.4 - 1.0 - Mostly clear 10 - - - -
02/03:30pm 13.5 SW 15 20 1008.4 - 1.0 Rain Mostly clear 10 - - - -
02/03:00pm 13.2 SSW 15 18 1008.0 R 1.0 Showers Mostly cloudy 25 - - - -
02/02:30pm 13.6 SSW 16 22 1007.8 - 0.4 - Mostly clear 10 - - - -
02/02:00pm 14.6 SSW 18 25 1007.8 - 0.0 - Partly cloudy 10 - - - -
02/01:30pm 14.2 SSW 16 20 1007.9 - 0.0 Showers Partly cloudy 10 - - - -
02/01:00pm 14.3 SSW 15 19 1008.0 - 0.0 - Mostly clear 10 - - - -
02/12:30pm 14.6 S 12 17 1008.0 - 0.0 Showers Mostly clear 10 - - - -
02/12:00pm 15.1 W 13 16 1008.4 R 0.0 Showers Mostly cloudy 9 - - - -
02/11:30am 15.5 SSW 10 15 1008.3 - 0.0 Showers Partly cloudy 10 - - - -
02/11:00am 16.0 SSW 10 21 1008.9 - 0.0 - Partly cloudy 10 - - - -
02/10:34am 16.1 SW 16 27 1009.0 - 0.0 - Partly cloudy 10 - - - -
02/10:30am 16.0 WSW 15 19 1008.9 - 0.0 Showers Partly cloudy 10 - - - -
02/10:00am 17.3 WSW 8 10 1009.0 - 0.0 - Mostly clear 10 - - - -
02/09:30am 16.5 SW 8 10 1009.0 - 0.0 - Partly cloudy 10 - - - -
02/09:00am 16.6 W 5 8 1009.2 F 0.2 Rain Partly cloudy 30 - - - -
02/08:30am 17.1 NW 7 9 1009.4 - 0.2 - Partly cloudy 10 - - - -
02/08:00am 17.4 NW 7 10 1009.5 - 0.2 - Partly cloudy 10 - - - -
02/07:30am 17.2 NW 8 10 1009.6 - 0.2 - Partly cloudy 10 - - - -
02/07:00am 16.2 WNW 11 18 1009.5 - 0.2 - Cloudy 10 - - - -
02/06:30am 16.0 W 11 14 1008.9 - 0.2 - Cloudy 10 - - - -
02/06:00am 15.8 W 16 20 1008.8 F 0.2 Fine Mostly cloudy 50 - - - -
02/05:30am 15.9 WSW 15 23 1008.4 - 0.2 - - 10 - - - -
02/05:00am 16.0 W 13 15 1008.6 - 0.2 - Cloudy 10 - - - -
02/04:30am 16.2 WSW 11 15 1008.6 - 0.2 - Cloudy 10 - - - -
02/04:00am 16.4 W 12 15 1008.3 - 0.2 - Cloudy 10 - - - -
02/03:30am 16.4 W 7 9 1008.2 - 0.2 - Cloudy 10 - - - -
02/03:00am 15.9 W 7 8 1008.3 F 0.2 Fine Cloudy 30 - - - -
02/02:30am 16.9 NW 3 4 1008.2 - 0.2 - Cloudy 10 - - - -
02/02:00am 17.1 N 7 8 1008.5 - 0.2 - Cloudy 10 - - - -
02/01:30am 17.1 NNW 5 5 1008.9 - 0.2 - Partly cloudy 10 - - - -
02/01:00am 17.3 N 6 7 1009.1 - 0.2 - - 10 - - - -
02/12:30am 16.9 N 7 9 1009.5 - 0.2 - - 10 - - - -
02/12:00am 17.1 N 6 7 1009.9 F 0.2 Fine Cloudy 30 - - - -
 
Date/Time
EST
Temp

°C
Wind Pressure Rain
since 9am
mm
Weather Cloud Vis
km
Sea
Height
m
Swell
Dir
 
Speed
knots
Gust
knots
hPa Trend Height
m
Period
s
Dir
01/11:30pm 17.8 N 6 7 1010.4 - 0.2 - - 10 - - - -
01/11:00pm 18.1 N 8 9 1010.6 - 0.2 - - 10 - - - -
01/10:30pm 18.4 N 8 10 1010.7 - 0.2 - - 10 - - - -
01/10:00pm 19.1 NNW 9 12 1010.9 - 0.2 - - 10 - - - -
01/09:30pm 18.7 N 10 13 1011.2 - 0.2 - - 10 - - - -
01/09:00pm 18.6 N 9 10 1011.3 F 0.2 Fine Cloudy 30 - - - -
01/08:30pm 18.6 N 8 10 1011.5 - 0.2 - - 10 - - - -
01/08:00pm 19.1 N 8 9 1011.5 - 0.2 - - 10 - - - -
01/07:30pm 19.6 NNW 5 6 1011.2 - 0.2 - - 10 - - - -
01/07:00pm 19.7 N 7 10 1011.1 - 0.2 - - 10 - - - -
01/06:30pm 20.5 N 6 7 1010.8 - 0.2 - - 10 - - - -
01/06:00pm 20.7 NNE 11 15 1010.4 F 0.2 Fine Mostly cloudy 30 - - - -
01/05:30pm 20.2 NNE 14 16 1010.4 - 0.2 - - 10 - - - -
01/05:00pm 21.0 NNE 14 17 1010.5 - 0.2 - - 10 - - - -
01/04:30pm 21.2 NE 12 15 1010.3 - 0.2 - - 10 - - - -
01/04:00pm 21.3 NE 11 14 1010.4 - 0.2 - - 10 - - - -
01/03:30pm 22.5 NE 11 14 1010.6 - 0.2 - - 10 - - - -
01/03:00pm 22.9 NNE 11 14 1010.5 F 0.2 Fine Mostly cloudy 40 - - - -
01/02:30pm 23.6 E 6 9 1010.9 - 0.2 - - 10 - - - -
01/02:00pm 22.9 NW 5 7 1011.4 - 0.2 - - 10 - - - -
01/01:30pm 23.6 NW 7 9 1012.1 - 0.2 - - 10 - - - -
01/01:00pm 23.0 W 6 9 1012.5 - 0.2 - - 10 - - - -
01/12:30pm 22.4 WNW 6 9 1013.2 - 0.0 - - 10 - - - -
01/12:00pm 23.0 NW 7 9 1013.5 F 0.0 Fine Mostly cloudy 30 - - - -
01/11:30am 21.3 NW 7 10 1014.0 - 0.0 - - 10 - - - -
01/11:00am 21.7 NW 7 9 1014.7 - 0.0 - - 10 - - - -
01/10:30am 19.5 NW 7 9 1015.3 - 0.0 - Mostly clear 10 - - - -
01/10:00am 18.0 NW 7 10 1016.0 - 0.0 - Mostly clear 10 - - - -
01/09:30am 16.9 NW 8 10 1016.5 - 0.0 - Mostly clear 10 - - - -
01/09:00am 15.3 NW 7 8 1016.9 F 0.0 Haze Partly cloudy 15 - - - -
01/08:30am 13.9 NW 8 10 1017.3 - 0.0 - Mostly clear 10 - - - -
01/08:00am 13.2 W 8 11 1017.3 - 0.0 - Mostly clear 10 - - - -
01/07:30am 13.0 WNW 7 9 1017.0 - 0.0 - Mostly clear 8 - - - -
01/07:00am 12.6 NW 7 9 1016.8 - 0.0 - Mostly clear 9 - - - -
01/06:44am 12.4 NW 7 8 1016.8 - 0.0 - Mostly cloudy 8 - - - -
01/06:30am 11.9 NW 8 10 1016.8 - 0.0 Fog patches Mostly clear 8 - - - -
01/06:00am 11.8 NNW 8 9 1016.6 F 0.0 Distant fog Mostly clear 8 - - - -
01/05:45am 11.8 NNW 7 7 1016.5 - 0.0 - Mostly clear 10 - - - -
01/05:30am 11.4 NW 8 9 1016.5 - 0.0 - Partly cloudy 10 - - - -
01/05:00am 11.3 NNW 8 9 1016.3 - 0.0 - - 10 - - - -
01/04:30am 10.8 NNW 7 8 1016.1 - 0.0 - - 10 - - - -
01/04:00am 10.9 NNW 6 7 1016.0 - 0.0 - - 10 - - - -
01/03:30am 11.3 NW 6 8 1015.9 - 0.0 - - 10 - - - -
01/03:00am 11.5 NW 7 9 1016.1 F 0.0 Fine Clear 20 - - - -
01/02:30am 12.1 NNW 6 8 1016.4 - 0.0 - - 10 - - - -
01/02:00am 12.1 N 6 6 1016.6 - 0.0 - - 10 - - - -
01/01:30am 12.8 N 7 7 1016.9 - 0.0 - Partly cloudy 10 - - - -
01/01:00am 13.0 N 7 8 1017.2 - 0.0 - - 10 - - - -
01/12:30am 13.4 N 6 6 1017.4 - 0.0 - Partly cloudy 10 - - - -
01/12:00am 13.5 NNW 5 5 1017.7 F 0.0 Fine Partly cloudy 20 - - - -
 
Date/Time
EST
Temp

°C
Wind Pressure Rain
since 9am
mm
Weather Cloud Vis
km
Sea
Height
m
Swell
Dir
 
Speed
knots
Gust
knots
hPa Trend Height
m
Period
s
Dir
31/11:30pm 13.7 N 4 6 1018.0 - 0.0 - - 10 - - - -
31/11:00pm 13.9 NNW 5 6 1018.1 - 0.0 - - 10 - - - -
31/10:30pm 14.3 WNW 6 7 1018.0 - 0.0 - - 10 - - - -
31/10:00pm 14.3 W 6 8 1018.2 - 0.0 - - 10 - - - -
31/09:30pm 14.0 W 3 6 1018.0 - 0.0 - - 10 - - - -
31/09:00pm 14.8 CALM 0 0 1018.1 F 0.0 Fine Clear 30 - - - -
31/08:30pm 15.6 CALM 0 0 1018.2 - 0.0 - - 10 - - - -
31/08:00pm 15.8 E 4 5 1018.1 - 0.0 - - 10 - - - -
31/07:30pm 15.5 E 5 6 1018.0 - 0.0 - - 10 - - - -
31/07:00pm 16.0 ENE 5 5 1017.8 - 0.0 - - 10 - - - -
31/06:30pm 16.5 ENE 6 7 1017.4 - 0.0 - - 10 - - - -
31/06:00pm 16.2 E 8 9 1017.3 F 0.0 Fine Clear 30 - - - -
31/05:30pm 16.6 ESE 8 9 1017.2 - 0.0 - - 10 - - - -
31/05:00pm 17.4 ESE 8 10 1017.2 - 0.0 - - 10 - - - -
31/04:30pm 17.5 ESE 9 11 1017.1 - 0.0 - - 10 - - - -
31/04:00pm 17.9 SE 9 11 1017.2 - 0.0 - - 10 - - - -
31/03:30pm 18.3 ESE 10 13 1017.1 - 0.0 - Mostly clear 10 - - - -
31/03:00pm 18.4 ESE 10 12 1017.3 F 0.0 Fine Mostly clear 30 - - - -
31/02:30pm 18.5 ESE 11 13 1017.5 - 0.0 - Mostly clear 10 - - - -
31/02:00pm 18.3 SE 10 12 1017.8 - 0.0 - Mostly clear 10 - - - -
31/01:30pm 19.0 ESE 10 11 1018.1 - 0.0 - Mostly clear 10 - - - -
31/01:00pm 18.3 SE 8 9 1018.5 - 0.0 - Partly cloudy 10 - - - -
31/12:30pm 18.4 SSE 9 10 1019.0 - 0.0 - Partly cloudy 10 - - - -
31/12:00pm 18.3 SSE 8 9 1019.4 F 0.0 Fine Partly cloudy 30 - - - -
31/11:30am 17.3 SSE 7 9 1019.7 - 0.0 - Mostly clear 10 - - - -
31/11:00am 17.1 SSE 7 9 1020.1 - 0.0 - Mostly clear 10 - - - -
31/10:30am 17.4 SW 6 9 1020.5 - 0.0 - Mostly clear 10 - - - -
31/10:00am 17.5 W 7 8 1020.6 - 0.0 - Mostly clear 10 - - - -
31/09:30am 16.7 W 7 8 1020.8 - 0.0 - Mostly clear 10 - - - -
31/09:00am 16.1 W 9 10 1021.0 F 1.0 Fine Mostly clear 30 - - - -
31/08:30am 15.0 W 9 11 1021.2 - 1.0 - Mostly clear 10 - - - -
31/08:00am 13.6 W 11 14 1021.1 - 1.0 - Mostly clear 10 - - - -
31/07:30am 13.5 W 12 19 1020.8 - 1.0 - Mostly clear 10 - - - -
31/07:00am 13.8 WSW 12 19 1020.7 - 1.0 - Mostly clear 10 - - - -
31/06:30am 13.0 W 9 21 1020.6 - 1.0 - Mostly clear 10 - - - -
31/06:00am 12.9 W 10 13 1020.4 F 1.0 Fine Mostly cloudy 30 - - - -
31/05:30am 12.5 W 11 14 1020.3 - 1.0 - Mostly clear 10 - - - -
31/05:00am 12.2 W 9 12 1020.2 - 1.0 - Cloudy - - - - -
31/04:30am 12.9 W 11 14 1020.1 - 1.0 - Partly cloudy 10 - - - -
31/04:00am 12.6 W 13 15 1020.2 - 1.0 - Partly cloudy 10 - - - -
31/03:30am 12.1 W 10 12 1020.2 - 1.0 - Partly cloudy 10 - - - -

Other Formats:

Comma delimited format used in spreadsheet applications
http://www.bom.gov.au/fwo/IDN60701/IDN60701.94767.axf

JavaScript Object Notation format (JSON) in row-major order
http://www.bom.gov.au/fwo/IDN60701/IDN60701.94767.json